createdAt,value
2019-04-16T00:02:45.288Z,8.83
2019-04-16T00:05:16.520Z,10.60
2019-04-16T00:07:57.704Z,9.03
2019-04-16T00:10:46.921Z,7.53
2019-04-16T00:13:31.970Z,8.27
2019-04-16T00:15:59.283Z,9.83
2019-04-16T00:18:25.938Z,10.47
2019-04-16T00:21:17.702Z,7.70
2019-04-16T00:24:09.556Z,10.53
2019-04-16T00:26:36.320Z,7.00
2019-04-16T00:29:03.297Z,11.10
2019-04-16T00:31:30.240Z,9.40
2019-04-16T00:33:56.786Z,8.27
2019-04-16T00:36:23.324Z,13.30
2019-04-16T00:38:53.870Z,11.23
2019-04-16T00:41:18.553Z,9.63
2019-04-16T00:43:45.098Z,8.93
2019-04-16T00:46:12.245Z,10.10
2019-04-16T00:48:38.972Z,8.20
2019-04-16T00:51:05.616Z,9.07
2019-04-16T00:53:32.260Z,10.83
2019-04-16T00:55:59.143Z,9.20
2019-04-16T00:58:25.679Z,9.30
2019-04-16T01:00:52.224Z,7.53
2019-04-16T01:03:18.925Z,9.67
2019-04-16T01:05:45.454Z,12.33
2019-04-16T01:08:12.153Z,8.70
2019-04-16T01:10:38.696Z,10.57
2019-04-16T01:13:05.545Z,13.27
2019-04-16T01:15:32.787Z,12.40
2019-04-16T01:17:59.504Z,9.57
2019-04-16T01:20:26.142Z,7.87
2019-04-16T01:22:52.675Z,7.73
2019-04-16T01:25:20.256Z,11.13
2019-04-16T01:27:52.592Z,9.97
2019-04-16T01:30:29.804Z,10.03
2019-04-16T01:33:16.084Z,10.87
2019-04-16T01:35:55.349Z,10.40
2019-04-16T01:38:44.528Z,8.57
2019-04-16T01:41:13.202Z,8.27
2019-04-16T01:43:39.912Z,11.17
2019-04-16T01:46:06.447Z,9.50
2019-04-16T01:48:33.086Z,8.17
2019-04-16T01:50:59.901Z,11.00
2019-04-16T01:53:26.629Z,8.63
2019-04-16T01:55:56.729Z,11.40
2019-04-16T01:58:22.090Z,11.00
2019-04-16T02:00:48.744Z,8.97
2019-04-16T02:03:17.851Z,10.37
2019-04-16T02:05:45.777Z,9.33
2019-04-16T02:08:12.409Z,9.53
2019-04-16T02:10:39.180Z,10.53
2019-04-16T02:13:06.093Z,11.57
2019-04-16T02:15:32.637Z,11.50
2019-04-16T02:17:59.959Z,9.83
2019-04-16T02:20:26.742Z,12.57
2019-04-16T02:22:53.380Z,11.27
2019-04-16T02:25:20.293Z,10.30
2019-04-16T02:27:46.961Z,9.53
2019-04-16T02:30:14.098Z,9.43
2019-04-16T02:32:40.763Z,9.40
2019-04-16T02:35:07.604Z,10.40
2019-04-16T02:37:36.341Z,10.50
2019-04-16T02:40:04.842Z,12.40
2019-04-16T02:42:32.187Z,8.60
2019-04-16T02:44:58.821Z,9.00
2019-04-16T02:47:25.684Z,9.87
2019-04-16T02:49:56.432Z,11.37
2019-04-16T02:52:31.872Z,10.80
2019-04-16T02:55:20.953Z,11.80
2019-04-16T02:58:00.028Z,12.97
2019-04-16T03:00:55.141Z,10.30
2019-04-16T03:03:32.907Z,9.33
2019-04-16T03:06:00.946Z,9.67
2019-04-16T03:08:28.146Z,9.40
2019-04-16T03:10:54.773Z,9.60
2019-04-16T03:13:23.380Z,9.20
2019-04-16T03:16:15.529Z,11.23
2019-04-16T03:18:55.211Z,8.60
2019-04-16T03:21:24.467Z,12.33
2019-04-16T03:23:50.368Z,7.87
2019-04-16T03:26:18.155Z,12.70
2019-04-16T03:28:45.158Z,12.13
2019-04-16T03:31:20.324Z,10.90
2019-04-16T03:33:48.613Z,11.27
2019-04-16T03:36:08.835Z,10.60
2019-04-16T03:38:37.343Z,10.00
2019-04-16T03:41:04.503Z,10.80
2019-04-16T03:43:32.770Z,10.30
2019-04-16T03:45:59.748Z,10.50
2019-04-16T03:48:26.543Z,12.60
2019-04-16T03:50:53.088Z,11.57
2019-04-16T03:53:21.529Z,8.73
2019-04-16T03:55:48.311Z,8.97
2019-04-16T03:58:14.976Z,10.53
2019-04-16T04:00:44.179Z,8.93
2019-04-16T04:03:10.371Z,12.50
2019-04-16T04:05:36.991Z,11.77
2019-04-16T04:08:03.769Z,9.50
2019-04-16T04:10:34.270Z,10.03
2019-04-16T04:12:58.757Z,9.37
2019-04-16T04:15:26.386Z,9.83
2019-04-16T04:17:53.885Z,9.77
2019-04-16T04:20:20.414Z,8.83
2019-04-16T04:22:47.108Z,9.70
2019-04-16T04:25:13.838Z,10.03
2019-04-16T04:27:40.494Z,10.77
2019-04-16T04:30:07.257Z,9.17
2019-04-16T04:32:35.435Z,11.10
2019-04-16T04:35:02.689Z,10.67
2019-04-16T04:37:31.193Z,12.47
2019-04-16T04:39:58.036Z,13.83
2019-04-16T04:42:25.572Z,12.93
2019-04-16T04:44:53.178Z,10.03
2019-04-16T04:47:20.224Z,12.30
2019-04-16T04:49:47.038Z,13.23
2019-04-16T04:52:15.156Z,9.80
2019-04-16T04:54:42.003Z,13.43
2019-04-16T04:57:08.646Z,9.60
2019-04-16T04:59:36.726Z,12.63
2019-04-16T05:02:04.016Z,10.47
2019-04-16T05:04:52.447Z,11.13
2019-04-16T05:07:18.936Z,11.50
2019-04-16T05:09:45.507Z,10.80
2019-04-16T05:12:12.325Z,15.20
2019-04-16T05:14:50.081Z,9.43
2019-04-16T05:17:16.604Z,10.30
2019-04-16T05:19:43.944Z,13.40
2019-04-16T05:22:11.439Z,13.93
2019-04-16T05:24:37.977Z,10.40
2019-04-16T05:27:05.497Z,11.13
2019-04-16T05:29:32.977Z,13.40
2019-04-16T05:31:59.637Z,12.27
2019-04-16T05:34:26.332Z,9.57
2019-04-16T05:36:52.890Z,8.83
2019-04-16T05:39:19.639Z,11.33
2019-04-16T05:41:46.172Z,14.57
2019-04-16T05:44:12.793Z,13.37
2019-04-16T05:46:41.359Z,13.93
2019-04-16T05:49:07.893Z,11.03
2019-04-16T05:51:36.880Z,11.12
2019-04-16T05:54:15.403Z,13.20
2019-04-16T05:56:46.176Z,13.53
2019-04-16T05:59:13.253Z,12.53
2019-04-16T06:01:50.604Z,12.73
2019-04-16T06:04:17.252Z,12.40
2019-04-16T06:06:43.784Z,11.17
2019-04-16T06:09:12.847Z,11.03
2019-04-16T06:11:39.575Z,14.27
2019-04-16T06:14:17.678Z,14.67
2019-04-16T06:17:02.909Z,16.17
2019-04-16T06:19:49.441Z,12.80
2019-04-16T06:22:34.142Z,10.60
2019-04-16T06:25:18.946Z,11.90
2019-04-16T06:28:03.816Z,12.67
2019-04-16T06:30:46.331Z,11.53
2019-04-16T06:33:19.293Z,10.67
2019-04-16T06:36:23.787Z,9.97
2019-04-16T06:39:19.305Z,10.90
2019-04-16T06:42:08.541Z,11.20
2019-04-16T06:44:42.772Z,13.03
2019-04-16T06:47:29.792Z,16.80
2019-04-16T06:50:07.518Z,12.77
2019-04-16T06:53:03.460Z,12.53
2019-04-16T06:55:36.260Z,9.13
2019-04-16T06:58:18.347Z,10.60
2019-04-16T07:00:57.955Z,8.80
2019-04-16T07:03:44.265Z,9.80
2019-04-16T07:06:29.263Z,9.57
2019-04-16T07:09:15.553Z,8.27
2019-04-16T07:11:53.784Z,7.77
2019-04-16T07:14:15.057Z,9.20
2019-04-16T07:16:40.289Z,10.53
2019-04-16T07:19:10.173Z,7.20
2019-04-16T07:21:35.778Z,9.60
2019-04-16T07:24:02.338Z,9.13
2019-04-16T07:26:29.192Z,10.53
2019-04-16T07:29:04.505Z,10.27
2019-04-16T07:31:42.434Z,11.20
2019-04-16T07:34:17.669Z,9.13
2019-04-16T07:36:56.581Z,7.70
2019-04-16T07:39:36.922Z,9.17
2019-04-16T07:42:22.277Z,11.63
2019-04-16T07:45:11.679Z,11.20
2019-04-16T07:47:58.532Z,8.00
2019-04-16T07:50:43.442Z,11.00
2019-04-16T07:53:31.620Z,8.67
2019-04-16T07:56:01.379Z,10.10
2019-04-16T07:58:28.027Z,10.07
2019-04-16T08:00:54.566Z,8.87
2019-04-16T08:03:23.567Z,9.57
2019-04-16T08:05:49.582Z,8.40
2019-04-16T08:08:16.235Z,8.57
2019-04-16T08:10:43.220Z,10.97
2019-04-16T08:13:19.208Z,11.33
2019-04-16T08:15:45.888Z,12.37
2019-04-16T08:18:12.519Z,8.40
2019-04-16T08:20:39.062Z,11.80
2019-04-16T08:23:25.509Z,7.67
2019-04-16T08:26:01.984Z,10.60
2019-04-16T08:28:20.903Z,13.27
2019-04-16T08:30:47.763Z,9.67
2019-04-16T08:33:14.365Z,9.20
2019-04-16T08:35:41.319Z,10.67
2019-04-16T08:38:08.481Z,8.37
2019-04-16T08:40:35.046Z,10.17
2019-04-16T08:43:01.792Z,11.00
2019-04-16T08:45:28.651Z,7.83
2019-04-16T08:47:55.302Z,9.47
2019-04-16T08:50:25.821Z,10.23
2019-04-16T08:52:50.551Z,8.47
2019-04-16T08:55:17.283Z,8.87
2019-04-16T08:57:46.780Z,8.10
2019-04-16T09:00:15.445Z,8.27
2019-04-16T09:02:42.211Z,12.50
2019-04-16T09:05:11.530Z,10.10
2019-04-16T09:07:40.699Z,7.40
2019-04-16T09:10:18.470Z,8.00
2019-04-16T09:12:44.897Z,9.37
2019-04-16T09:15:08.508Z,10.60
2019-04-16T09:17:38.370Z,9.37
2019-04-16T09:20:10.298Z,9.50
2019-04-16T09:22:48.080Z,9.27
2019-04-16T09:25:22.775Z,9.43
2019-04-16T09:27:53.248Z,8.97
2019-04-16T09:30:31.771Z,7.23
2019-04-16T09:33:10.624Z,9.33
2019-04-16T09:35:56.989Z,10.20
2019-04-16T09:38:45.145Z,7.97
2019-04-16T09:41:21.858Z,8.07
2019-04-16T09:43:53.635Z,8.37
2019-04-16T09:46:25.458Z,10.60
2019-04-16T09:48:50.138Z,9.03
2019-04-16T09:51:20.176Z,9.87
2019-04-16T09:53:45.537Z,10.80
2019-04-16T09:56:30.065Z,9.70
2019-04-16T09:59:00.548Z,9.10
2019-04-16T10:01:36.183Z,7.17
2019-04-16T10:04:03.036Z,7.37
2019-04-16T10:06:29.564Z,9.67
2019-04-16T10:08:56.852Z,8.17
2019-04-16T10:11:23.597Z,9.13
2019-04-16T10:13:50.239Z,9.50
2019-04-16T10:16:18.802Z,10.37
2019-04-16T10:18:45.642Z,10.60
2019-04-16T10:21:12.812Z,9.47
2019-04-16T10:23:46.428Z,10.47
2019-04-16T10:26:13.512Z,10.13
2019-04-16T10:28:40.157Z,8.03
2019-04-16T10:31:06.965Z,7.97
2019-04-16T10:33:33.537Z,9.23
2019-04-16T10:36:01.081Z,9.17
2019-04-16T10:38:36.844Z,9.20
2019-04-16T10:41:10.353Z,7.47
2019-04-16T10:43:55.262Z,9.33
2019-04-16T10:46:40.639Z,8.73
2019-04-16T10:49:26.824Z,8.40
2019-04-16T10:52:17.445Z,9.47
2019-04-16T10:54:48.766Z,9.03
2019-04-16T10:57:40.882Z,8.80
2019-04-16T11:00:27.135Z,8.27
2019-04-16T11:02:59.288Z,8.30
2019-04-16T11:05:31.043Z,8.87
2019-04-16T11:07:58.107Z,7.20
2019-04-16T11:10:24.734Z,8.97
2019-04-16T11:12:53.022Z,9.03
2019-04-16T11:15:21.628Z,9.73
2019-04-16T11:17:48.362Z,7.63
2019-04-16T11:20:15.857Z,6.23
2019-04-16T11:22:42.442Z,8.23
2019-04-16T11:25:09.241Z,7.53
2019-04-16T11:27:36.114Z,6.10
2019-04-16T11:30:05.697Z,7.97
2019-04-16T11:32:32.230Z,8.00
2019-04-16T11:34:59.062Z,7.40
2019-04-16T11:37:25.962Z,6.13
2019-04-16T11:39:52.623Z,5.83
2019-04-16T11:42:19.479Z,6.90
2019-04-16T11:44:46.117Z,7.30
2019-04-16T11:47:13.118Z,7.13
2019-04-16T11:49:39.764Z,7.13
2019-04-16T11:52:06.504Z,7.93
2019-04-16T11:54:33.056Z,6.43
2019-04-16T11:57:00.244Z,6.90
2019-04-16T11:59:27.194Z,10.10
2019-04-16T12:02:01.587Z,9.47
2019-04-16T12:04:43.893Z,8.83
2019-04-16T12:07:46.914Z,7.03
2019-04-16T12:10:32.272Z,6.83
2019-04-16T12:13:17.718Z,9.17
2019-04-16T12:15:57.441Z,7.00
2019-04-16T12:18:45.112Z,8.80
2019-04-16T12:21:49.517Z,8.43
2019-04-16T12:24:35.929Z,6.17
2019-04-16T12:27:37.670Z,8.33
2019-04-16T12:30:33.366Z,10.50
2019-04-16T12:33:08.536Z,7.73
2019-04-16T12:35:49.636Z,7.23
2019-04-16T12:38:25.536Z,6.60
2019-04-16T12:41:17.629Z,7.97
2019-04-16T12:43:50.980Z,7.57
2019-04-16T12:46:50.430Z,7.70
2019-04-16T12:49:35.252Z,7.03
2019-04-16T12:52:22.366Z,8.93
2019-04-16T12:55:09.883Z,9.30
2019-04-16T12:58:02.243Z,7.77
2019-04-16T13:00:34.899Z,7.67
2019-04-16T13:03:17.539Z,10.57
2019-04-16T13:06:01.959Z,8.13
2019-04-16T13:08:43.682Z,7.70
2019-04-16T13:11:36.242Z,7.27
2019-04-16T13:14:31.623Z,7.57
2019-04-16T13:17:15.161Z,6.93
2019-04-16T13:19:49.716Z,8.03
2019-04-16T13:22:17.525Z,8.00
2019-04-16T13:24:47.428Z,7.93
2019-04-16T13:27:16.196Z,7.73
2019-04-16T13:29:42.866Z,5.90
2019-04-16T13:32:09.495Z,6.17
2019-04-16T13:34:39.028Z,6.23
2019-04-16T13:37:05.969Z,7.23
2019-04-16T13:39:59.288Z,6.40
2019-04-16T13:42:24.506Z,7.70
2019-04-16T13:44:59.581Z,5.93
2019-04-16T13:47:27.743Z,6.70
2019-04-16T13:50:04.317Z,6.10
2019-04-16T13:52:31.123Z,10.43
2019-04-16T13:55:13.429Z,4.37
2019-04-16T13:57:40.251Z,6.40
2019-04-16T14:00:13.332Z,5.10
2019-04-16T14:02:59.623Z,5.50
2019-04-16T14:05:26.532Z,4.80
2019-04-16T14:07:53.213Z,6.93
2019-04-16T14:10:21.973Z,5.13
2019-04-16T14:12:48.891Z,7.57
2019-04-16T14:15:30.825Z,6.27
2019-04-16T14:17:52.798Z,4.30
2019-04-16T14:20:16.979Z,5.33
2019-04-16T14:22:43.678Z,5.00
2019-04-16T14:25:10.519Z,5.57
2019-04-16T14:27:37.472Z,5.27
2019-04-16T14:30:10.290Z,4.77
2019-04-16T14:32:37.497Z,5.10
2019-04-16T14:35:09.598Z,5.80
2019-04-16T14:37:36.255Z,6.73
2019-04-16T14:40:14.509Z,5.03
2019-04-16T14:42:41.161Z,5.80
2019-04-16T14:45:16.965Z,5.33
2019-04-16T14:47:43.538Z,5.43
2019-04-16T14:50:13.720Z,5.17
2019-04-16T14:52:42.962Z,4.97
2019-04-16T14:55:19.886Z,4.50
2019-04-16T14:58:03.626Z,5.63
2019-04-16T15:00:46.648Z,4.97
2019-04-16T15:03:22.715Z,4.47
2019-04-16T15:05:59.294Z,5.77
2019-04-16T15:08:33.600Z,7.33
2019-04-16T15:11:19.871Z,5.47
2019-04-16T15:14:17.803Z,5.30
2019-04-16T15:16:58.638Z,5.27
2019-04-16T15:19:27.404Z,4.83
2019-04-16T15:22:14.363Z,6.20
2019-04-16T15:24:59.525Z,5.50
2019-04-16T15:27:42.799Z,5.37
2019-04-16T15:30:34.765Z,7.13
2019-04-16T15:33:19.549Z,5.67
2019-04-16T15:35:51.485Z,5.07
2019-04-16T15:38:30.365Z,5.57
2019-04-16T15:41:12.082Z,4.33
2019-04-16T15:43:50.459Z,4.13
2019-04-16T15:46:46.956Z,5.27
2019-04-16T15:49:39.296Z,4.67
2019-04-16T15:52:28.198Z,3.57
2019-04-16T15:55:12.801Z,3.30
2019-04-16T15:57:48.076Z,6.10
2019-04-16T16:00:28.573Z,8.00
2019-04-16T16:03:14.449Z,6.07
2019-04-16T16:05:50.266Z,4.30
2019-04-16T16:08:21.984Z,4.27
2019-04-16T16:10:54.904Z,4.60
2019-04-16T16:13:22.796Z,4.03
2019-04-16T16:15:50.276Z,4.97
2019-04-16T16:18:16.922Z,7.57
2019-04-16T16:20:44.011Z,5.37
2019-04-16T16:23:10.667Z,6.90
2019-04-16T16:25:41.154Z,5.03
2019-04-16T16:28:06.051Z,4.57
2019-04-16T16:30:32.697Z,7.27
2019-04-16T16:32:59.552Z,5.87
2019-04-16T16:35:26.191Z,7.43
2019-04-16T16:37:52.755Z,5.43
2019-04-16T16:40:19.364Z,5.00
2019-04-16T16:42:46.064Z,6.53
2019-04-16T16:45:13.423Z,7.33
2019-04-16T16:47:40.372Z,6.43
2019-04-16T16:50:10.412Z,5.73
2019-04-16T16:52:45.978Z,7.07
2019-04-16T16:55:20.109Z,8.07
2019-04-16T16:58:05.260Z,7.30
2019-04-16T17:00:43.981Z,8.63
2019-04-16T17:03:35.936Z,7.23
2019-04-16T17:06:03.323Z,7.80
2019-04-16T17:08:30.905Z,6.07
2019-04-16T17:10:57.659Z,6.37
2019-04-16T17:13:24.363Z,7.80
2019-04-16T17:15:51.218Z,7.17
2019-04-16T17:18:17.966Z,8.17
2019-04-16T17:20:44.782Z,8.57
2019-04-16T17:23:16.447Z,9.43
2019-04-16T17:25:40.012Z,8.90
2019-04-16T17:28:07.008Z,7.83
2019-04-16T17:30:33.716Z,8.60
2019-04-16T17:33:03.393Z,11.03
2019-04-16T17:35:30.066Z,9.50
2019-04-16T17:38:01.841Z,8.40
2019-04-16T17:40:41.197Z,8.00
2019-04-16T17:43:14.085Z,8.43
2019-04-16T17:45:49.168Z,7.33
2019-04-16T17:48:44.138Z,6.00
2019-04-16T17:51:24.725Z,6.93
2019-04-16T17:54:11.003Z,6.37
2019-04-16T17:57:03.419Z,7.80
2019-04-16T18:00:05.770Z,8.53
2019-04-16T18:02:44.355Z,8.80
2019-04-16T18:05:24.307Z,7.40
2019-04-16T18:08:20.057Z,8.33
2019-04-16T18:11:10.704Z,7.65
2019-04-16T18:14:04.631Z,8.70
2019-04-16T18:16:32.129Z,6.40
2019-04-16T18:19:30.685Z,7.23
2019-04-16T18:22:06.140Z,8.60
2019-04-16T18:24:54.060Z,7.83
2019-04-16T18:27:38.913Z,7.13
2019-04-16T18:30:31.173Z,8.50
2019-04-16T18:33:23.440Z,7.93
2019-04-16T18:35:53.971Z,7.70
2019-04-16T18:38:33.466Z,7.47
2019-04-16T18:41:20.957Z,7.30
2019-04-16T18:44:06.063Z,7.93
2019-04-16T18:46:46.711Z,7.50
2019-04-16T18:49:17.369Z,10.00
2019-04-16T18:51:44.993Z,8.40
2019-04-16T18:54:15.056Z,7.30
2019-04-16T18:56:42.996Z,8.20
2019-04-16T18:59:09.653Z,6.77
2019-04-16T19:01:39.521Z,7.63
2019-04-16T19:04:06.662Z,6.87
2019-04-16T19:06:34.408Z,6.53
2019-04-16T19:09:01.141Z,7.43
2019-04-16T19:11:27.893Z,5.87
2019-04-16T19:13:54.747Z,7.70
2019-04-16T19:16:21.594Z,7.10
2019-04-16T19:18:48.362Z,6.60
2019-04-16T19:21:15.072Z,6.40
2019-04-16T19:23:41.742Z,7.10
2019-04-16T19:26:08.374Z,7.87
2019-04-16T19:28:36.240Z,7.60
2019-04-16T19:31:03.475Z,8.50
2019-04-16T19:33:33.413Z,7.27
2019-04-16T19:35:58.901Z,6.50
2019-04-16T19:38:25.584Z,10.27
2019-04-16T19:40:52.649Z,9.23
2019-04-16T19:43:19.981Z,5.53
2019-04-16T19:45:46.697Z,8.23
2019-04-16T19:48:17.708Z,8.30
2019-04-16T19:50:43.262Z,7.20
2019-04-16T19:53:13.671Z,8.17
2019-04-16T19:55:39.049Z,8.17
2019-04-16T19:58:05.884Z,8.07
2019-04-16T20:00:32.727Z,8.27
2019-04-16T20:02:59.618Z,7.37
2019-04-16T20:05:28.733Z,6.97
2019-04-16T20:07:55.073Z,6.73
2019-04-16T20:10:21.783Z,8.50
2019-04-16T20:12:48.557Z,7.03
2019-04-16T20:15:16.342Z,9.23
2019-04-16T20:17:43.233Z,6.47
2019-04-16T20:20:10.005Z,8.00
2019-04-16T20:22:36.825Z,7.80
2019-04-16T20:25:03.965Z,8.73
2019-04-16T20:27:30.727Z,8.30
2019-04-16T20:29:57.401Z,7.93
2019-04-16T20:32:25.342Z,8.33
2019-04-16T20:34:52.064Z,6.80
2019-04-16T20:37:19.714Z,6.53
2019-04-16T20:39:46.361Z,7.73
2019-04-16T20:42:13.984Z,8.37
2019-04-16T20:44:41.667Z,8.27
2019-04-16T20:47:09.002Z,8.90
2019-04-16T20:49:35.860Z,8.83
2019-04-16T20:52:02.924Z,8.33
2019-04-16T20:54:30.393Z,6.73
2019-04-16T20:56:57.253Z,7.57
2019-04-16T20:59:24.981Z,6.20
2019-04-16T21:01:51.658Z,6.77
2019-04-16T21:04:18.368Z,11.93
2019-04-16T21:06:45.042Z,10.33
2019-04-16T21:09:11.811Z,11.07
2019-04-16T21:11:41.028Z,8.53
2019-04-16T21:14:07.119Z,9.77
2019-04-16T21:16:36.742Z,10.90
2019-04-16T21:19:03.689Z,7.30
2019-04-16T21:21:30.228Z,10.87
2019-04-16T21:23:56.975Z,11.43
2019-04-16T21:26:23.769Z,11.03
2019-04-16T21:29:08.132Z,8.90
2019-04-16T21:31:42.904Z,9.17
2019-04-16T21:34:14.935Z,10.47
2019-04-16T21:36:47.013Z,9.27
2019-04-16T21:39:21.740Z,9.93
2019-04-16T21:41:48.525Z,12.17
2019-04-16T21:44:15.416Z,10.10
2019-04-16T21:46:42.098Z,9.43
2019-04-16T21:49:09.035Z,13.10
2019-04-16T21:51:38.674Z,11.50
2019-04-16T21:54:05.578Z,13.80
2019-04-16T21:56:32.143Z,12.07
2019-04-16T21:58:59.156Z,13.83
2019-04-16T22:01:35.777Z,9.97
2019-04-16T22:04:07.703Z,9.97
2019-04-16T22:06:36.175Z,10.23
2019-04-16T22:09:04.837Z,8.23
2019-04-16T22:11:31.455Z,10.70
2019-04-16T22:13:58.120Z,11.00
2019-04-16T22:16:26.681Z,10.30
2019-04-16T22:18:54.340Z,8.37
2019-04-16T22:21:21.120Z,10.47
2019-04-16T22:23:50.392Z,9.70
2019-04-16T22:26:16.191Z,8.40
2019-04-16T22:28:44.381Z,10.90
2019-04-16T22:31:11.778Z,9.70
2019-04-16T22:33:38.436Z,10.23
2019-04-16T22:36:06.395Z,9.33
2019-04-16T22:38:33.770Z,9.70
2019-04-16T22:41:09.769Z,10.23
2019-04-16T22:43:54.630Z,8.27
2019-04-16T22:46:42.821Z,10.27
2019-04-16T22:49:09.639Z,8.70
2019-04-16T22:51:36.271Z,8.67
2019-04-16T22:54:03.030Z,8.80
2019-04-16T22:56:43.080Z,12.30
2019-04-16T22:59:09.726Z,11.23
2019-04-16T23:01:37.513Z,9.07
2019-04-16T23:04:04.262Z,10.40
2019-04-16T23:06:30.894Z,8.80
2019-04-16T23:08:57.718Z,9.60
2019-04-16T23:11:24.640Z,9.43
2019-04-16T23:13:51.322Z,12.40
2019-04-16T23:16:18.163Z,10.07
2019-04-16T23:18:48.817Z,8.03
2019-04-16T23:21:13.530Z,8.83
2019-04-16T23:23:40.274Z,11.97
2019-04-16T23:26:06.817Z,7.77
2019-04-16T23:28:33.445Z,9.00
2019-04-16T23:31:00.114Z,9.13
2019-04-16T23:33:26.703Z,8.13
2019-04-16T23:35:53.210Z,10.83
2019-04-16T23:38:19.983Z,10.20
2019-04-16T23:40:46.868Z,8.20
2019-04-16T23:43:29.888Z,10.13
2019-04-16T23:46:15.042Z,9.07
2019-04-16T23:48:48.590Z,9.17
2019-04-16T23:51:28.699Z,8.60
2019-04-16T23:53:56.170Z,7.83
2019-04-16T23:56:38.787Z,8.87
2019-04-16T23:59:12.074Z,8.93
